createdAt,value
2022-09-23T00:02:34.997Z,5.47
2022-09-23T00:07:42.742Z,6.07
2022-09-23T00:12:47.896Z,6.05
2022-09-23T00:17:52.955Z,6.35
2022-09-23T00:23:00.789Z,7.05
2022-09-23T00:28:06.228Z,6.38
2022-09-23T00:33:11.311Z,6.18
2022-09-23T00:38:19.220Z,6.35
2022-09-23T00:43:39.431Z,6.35
2022-09-23T00:48:46.254Z,6.47
2022-09-23T00:53:54.913Z,6.53
2022-09-23T00:59:00.278Z,7.13
2022-09-23T01:04:06.136Z,7.57
2022-09-23T01:09:13.985Z,7.95
2022-09-23T01:14:32.332Z,7.18
2022-09-23T01:19:48.119Z,7.90
2022-09-23T01:25:05.797Z,8.13
2022-09-23T01:30:17.769Z,7.10
2022-09-23T01:35:30.647Z,6.82
2022-09-23T01:40:44.353Z,7.47
2022-09-23T01:45:54.733Z,7.35
2022-09-23T01:51:06.362Z,7.63
2022-09-23T01:56:15.415Z,6.95
2022-09-23T02:01:23.218Z,6.60
2022-09-23T02:06:34.934Z,6.90
2022-09-23T02:11:41.966Z,7.22
2022-09-23T02:16:48.689Z,7.80
2022-09-23T02:21:59.133Z,6.25
2022-09-23T02:27:13.310Z,6.60
2022-09-23T02:32:22.549Z,7.10
2022-09-23T02:37:37.780Z,7.13
2022-09-23T02:42:48.704Z,7.32
2022-09-23T02:47:56.410Z,6.57
2022-09-23T02:53:05.014Z,7.40
2022-09-23T02:58:10.293Z,7.03
2022-09-23T03:03:26.428Z,6.82
2022-09-23T03:08:40.052Z,7.63
2022-09-23T03:13:54.176Z,6.35
2022-09-23T03:19:02.521Z,7.10
2022-09-23T03:24:14.474Z,7.20
2022-09-23T03:29:20.196Z,6.47
2022-09-23T03:34:27.665Z,6.40
2022-09-23T03:39:41.904Z,6.80
2022-09-23T03:44:47.789Z,6.85
2022-09-23T03:50:00.474Z,5.90
2022-09-23T03:55:09.244Z,6.07
2022-09-23T04:00:17.772Z,6.60
2022-09-23T04:05:22.794Z,6.30
2022-09-23T04:10:30.534Z,6.15
2022-09-23T04:15:47.857Z,5.50
2022-09-23T04:20:53.324Z,5.55
2022-09-23T04:39:19.115Z,6.43
2022-09-23T04:44:23.400Z,7.82
2022-09-23T04:49:33.983Z,7.75
2022-09-23T04:54:39.182Z,8.15
2022-09-23T04:59:47.801Z,8.90
2022-09-23T05:04:53.039Z,9.27
2022-09-23T05:09:58.288Z,6.90
2022-09-23T05:15:06.235Z,7.88
2022-09-23T05:20:26.311Z,7.35
2022-09-23T05:25:34.079Z,7.13
2022-09-23T05:30:45.513Z,7.40
2022-09-23T05:35:51.441Z,9.30
2022-09-23T05:41:00.389Z,8.65
2022-09-23T05:46:09.940Z,10.80
2022-09-23T05:51:17.486Z,10.82
2022-09-23T05:56:24.939Z,12.95
2022-09-23T06:01:35.527Z,9.82
2022-09-23T06:06:42.826Z,7.95
2022-09-23T06:11:47.995Z,7.60
2022-09-23T06:16:55.914Z,6.93
2022-09-23T06:22:01.490Z,6.18
2022-09-23T06:27:06.885Z,5.97
2022-09-23T06:32:14.643Z,6.25
2022-09-23T06:37:20.797Z,6.43
2022-09-23T06:42:26.145Z,6.32
2022-09-23T06:47:34.166Z,5.70
2022-09-23T06:52:39.461Z,7.25
2022-09-23T06:57:44.787Z,6.85
2022-09-23T07:02:52.726Z,7.78
2022-09-23T07:13:05.147Z,6.60
2022-09-23T07:18:13.384Z,6.70
2022-09-23T07:23:18.598Z,7.25
2022-09-23T07:28:24.385Z,8.02
2022-09-23T07:33:33.437Z,7.63
2022-09-23T07:38:42.936Z,8.55
2022-09-23T07:43:51.508Z,7.43
2022-09-23T07:48:59.820Z,6.65
2022-09-23T07:54:08.250Z,6.28
2022-09-23T07:59:17.404Z,4.78
2022-09-23T08:04:27.961Z,5.70
2022-09-23T08:09:35.138Z,5.00
2022-09-23T08:14:40.724Z,3.75
2022-09-23T08:19:52.255Z,4.55
2022-09-23T08:24:58.788Z,3.80
2022-09-23T08:30:04.042Z,3.40
2022-09-23T08:35:12.852Z,4.25
2022-09-23T08:40:25.312Z,3.38
2022-09-23T08:45:31.264Z,3.33
2022-09-23T08:50:42.586Z,2.97
2022-09-23T08:56:01.470Z,3.45
2022-09-23T09:01:24.588Z,3.00
2022-09-23T09:06:45.535Z,2.00
2022-09-23T09:11:52.937Z,1.92
2022-09-23T09:22:12.946Z,3.03
2022-09-23T09:27:18.203Z,2.45
2022-09-23T09:32:30.765Z,2.55
2022-09-23T09:37:46.207Z,2.65
2022-09-23T09:42:54.735Z,2.28
2022-09-23T09:48:08.687Z,2.25
2022-09-23T09:53:42.834Z,2.53
2022-09-23T09:58:50.956Z,2.33
2022-09-23T10:04:00.748Z,2.60
2022-09-23T10:09:27.165Z,1.98
2022-09-23T10:14:39.192Z,1.50
2022-09-23T10:19:51.051Z,2.53
2022-09-23T10:25:02.297Z,1.88
2022-09-23T10:30:10.388Z,2.45
2022-09-23T10:35:24.714Z,2.63
2022-09-23T10:40:49.480Z,2.15
2022-09-23T10:46:09.006Z,1.83
2022-09-23T10:51:17.797Z,1.98
2022-09-23T10:56:32.611Z,2.30
2022-09-23T11:01:44.958Z,1.88
2022-09-23T11:07:01.800Z,2.63
2022-09-23T11:12:19.486Z,2.72
2022-09-23T11:17:42.657Z,2.60
2022-09-23T11:23:03.433Z,2.40
2022-09-23T11:28:29.910Z,2.20
2022-09-23T11:33:45.005Z,2.05
2022-09-23T11:38:57.162Z,2.58
2022-09-23T11:44:09.507Z,1.77
2022-09-23T11:49:17.776Z,1.88
2022-09-23T11:54:26.394Z,1.80
2022-09-23T11:59:45.327Z,2.60
2022-09-23T12:05:00.175Z,1.80
2022-09-23T12:10:09.705Z,2.10
2022-09-23T12:15:24.790Z,2.38
2022-09-23T12:21:27.435Z,1.88
2022-09-23T12:32:11.903Z,1.95
2022-09-23T12:37:17.307Z,1.90
2022-09-23T12:42:31.303Z,1.60
2022-09-23T12:47:45.120Z,2.10
2022-09-23T12:52:50.325Z,1.85
2022-09-23T12:57:55.627Z,1.65
2022-09-23T13:03:16.325Z,1.55
2022-09-23T13:08:23.167Z,1.63
2022-09-23T13:13:31.928Z,1.13
2022-09-23T13:19:03.675Z,1.45
2022-09-23T13:24:25.735Z,1.85
2022-09-23T13:29:35.950Z,1.13
2022-09-23T13:34:44.578Z,0.82
2022-09-23T13:39:49.727Z,1.20
2022-09-23T13:44:55.807Z,1.08
2022-09-23T13:50:04.695Z,1.35
2022-09-23T13:55:28.804Z,1.33
2022-09-23T14:00:39.248Z,1.08
2022-09-23T14:05:50.075Z,1.25
2022-09-23T14:10:56.082Z,0.88
2022-09-23T14:16:02.802Z,1.10
2022-09-23T14:21:35.381Z,1.60
2022-09-23T14:26:41.474Z,1.45
2022-09-23T14:31:57.241Z,1.13
2022-09-23T14:37:26.276Z,1.13
2022-09-23T14:42:31.748Z,1.80
2022-09-23T14:47:37.006Z,3.38
2022-09-23T14:52:52.044Z,4.93
2022-09-23T14:58:05.191Z,2.42
2022-09-23T15:03:17.865Z,1.30
2022-09-23T15:08:27.461Z,1.13
2022-09-23T15:13:34.585Z,1.65
2022-09-23T15:18:41.861Z,1.42
2022-09-23T15:23:55.105Z,1.23
2022-09-23T15:29:00.240Z,5.32
2022-09-23T15:34:05.943Z,2.50
2022-09-23T15:39:14.485Z,1.73
2022-09-23T15:44:21.987Z,2.55
2022-09-23T15:49:31.560Z,2.50
2022-09-23T15:54:39.489Z,2.63
2022-09-23T15:59:44.504Z,2.03
2022-09-23T16:04:52.781Z,1.67
2022-09-23T16:10:00.725Z,2.33
2022-09-23T16:15:06.049Z,3.47
2022-09-23T16:20:11.929Z,3.55
2022-09-23T16:25:20.078Z,6.70
2022-09-23T16:30:31.434Z,9.00
2022-09-23T16:35:43.426Z,7.25
2022-09-23T16:46:33.069Z,5.22
2022-09-23T16:51:38.993Z,4.88
2022-09-23T16:57:10.225Z,4.38
2022-09-23T17:02:28.981Z,5.50
2022-09-23T17:07:34.252Z,4.55
2022-09-23T17:18:19.347Z,4.93
2022-09-23T17:23:24.950Z,5.93
2022-09-23T17:28:32.831Z,8.07
2022-09-23T17:33:43.413Z,6.00
2022-09-23T17:38:56.967Z,7.50
2022-09-23T17:44:08.327Z,8.75
2022-09-23T17:49:13.739Z,10.20
2022-09-23T17:54:19.186Z,11.43
2022-09-23T17:59:27.111Z,11.13
2022-09-23T18:04:32.346Z,9.32
2022-09-23T18:09:37.423Z,12.73
2022-09-23T18:14:48.652Z,14.82
2022-09-23T18:19:55.977Z,12.23
2022-09-23T18:25:13.071Z,10.98
2022-09-23T18:30:33.299Z,13.90
2022-09-23T18:35:38.295Z,13.63
2022-09-23T18:40:54.428Z,13.95
2022-09-23T18:46:04.380Z,15.68
2022-09-23T18:51:10.618Z,16.05
2022-09-23T18:56:17.553Z,16.27
2022-09-23T19:01:26.467Z,17.15
2022-09-23T19:06:32.495Z,17.27
2022-09-23T19:11:40.786Z,16.50
2022-09-23T19:16:49.294Z,16.55
2022-09-23T19:21:55.075Z,14.88
2022-09-23T19:27:01.223Z,14.93
2022-09-23T19:32:09.027Z,13.38
2022-09-23T19:42:18.824Z,11.75
2022-09-23T19:47:26.654Z,11.68
2022-09-23T19:57:36.652Z,10.15
2022-09-23T20:02:44.422Z,9.32
2022-09-23T20:07:49.566Z,9.15
2022-09-23T20:12:56.104Z,10.02
2022-09-23T20:18:03.747Z,9.65
2022-09-23T20:23:08.914Z,10.63
2022-09-23T20:28:13.924Z,11.07
2022-09-23T20:33:22.496Z,11.25
2022-09-23T20:38:27.927Z,11.18
2022-09-23T20:43:34.764Z,12.48
2022-09-23T20:48:42.474Z,13.23
2022-09-23T20:53:47.650Z,11.98
2022-09-23T20:58:54.309Z,13.10
2022-09-23T21:04:09.927Z,12.25
2022-09-23T21:09:15.103Z,13.43
2022-09-23T21:14:20.630Z,12.82
2022-09-23T21:19:28.387Z,13.23
2022-09-23T21:25:03.900Z,12.38
2022-09-23T21:29:59.352Z,9.98
2022-09-23T21:35:07.307Z,9.98
2022-09-23T21:40:25.818Z,8.15
2022-09-23T21:45:31.861Z,8.30
2022-09-23T21:50:41.215Z,9.70
2022-09-23T21:55:49.088Z,11.38
2022-09-23T22:00:54.275Z,10.30
2022-09-23T22:06:10.469Z,11.63
2022-09-23T22:11:37.312Z,10.32
2022-09-23T22:16:42.592Z,10.13
2022-09-23T22:21:50.859Z,13.10
2022-09-23T22:26:55.972Z,14.68
2022-09-23T22:32:13.741Z,16.88
2022-09-23T22:37:23.968Z,15.27
2022-09-23T22:42:29.396Z,13.73
2022-09-23T22:47:37.861Z,14.13
2022-09-23T22:52:45.797Z,10.90
2022-09-23T23:02:59.373Z,11.35
2022-09-23T23:08:07.221Z,14.18
2022-09-23T23:13:12.357Z,14.10
2022-09-23T23:18:17.821Z,13.07
2022-09-23T23:23:25.590Z,11.80
2022-09-23T23:28:30.677Z,28.65
2022-09-23T23:33:35.756Z,26.38
2022-09-23T23:38:44.883Z,22.33
2022-09-23T23:43:50.900Z,19.30
2022-09-23T23:48:56.541Z,18.05
2022-09-23T23:54:04.570Z,15.10
2022-09-23T23:59:10.118Z,11.52
